Le Roy, MN

12:02 PM CDT on July 10, 2014 (GMT -0500)
Preston (KFKA) Elev 1276 ft | 43.68 °N, 92.17 °W | Change Station

Current weather conditions updated 10 minutes ago

Scattered Clouds
Scattered Clouds
76 °F
Feels Like 76 °F
N
10
Wind Variable Wind from SSW

Today is forecast to be nearly the same temperature as yesterday. A few showers developing late tonight.

Today
High -- | Low -- °F
--% Chance of Precip.
Yesterday
High -- | Low -- °F
Precip. -- in
5:38 AM 8:51 PM
Waxing Gibbous, 95% visible
Pressure 30.12 in
Visibility 7.0 miles
Clouds Scattered Clouds 5000 ft
Scattered Clouds 6000 ft
Dew Point 63 °F
Humidity 64%
Rainfall 0.00 in
Snow Depth Not available.
UV 8 out of 12
Pollen 3.40 out of 12
Air Quality Not available.
Flu Activity Sporadic
METAR KFKA 101652Z AUTO 20009KT 7SM SCT050 SCT060 25/17 A3012 RMK AO2 T02450173

More Conditions Fewer Conditions

Pressure 30.12 in
Visibility 7.0 miles
Clouds Scattered Clouds 5000 ft
Scattered Clouds 6000 ft
Dew Point 63 °F
Humidity 64%
Rainfall 0.00 in
Snow Depth Not available.
UV 8 out of 12
Pollen 3.40 out of 12
Air Quality Not available.
Flu Activity Sporadic
METAR KFKA 101652Z AUTO 20009KT 7SM SCT050 SCT060 25/17 A3012 RMK AO2 T02450173

More Conditions Fewer Conditions

10-Day Weather Forecast

Almanac

Astronomy

Jul. 10, 2014 Rise Set
Actual Time 5:38 AM CDT 8:51 PM CDT
Civil Twilight 5:03 AM CDT 9:26 PM CDT
Nautical Twilight 4:18 AM CDT 10:11 PM CDT
Astronomical Twilight 3:23 AM CDT 11:06 PM CDT
Moon 7:03 PM CDT 3:52 AM CDT
Length of Visible Light 16h 22m
Length of Day
15h 12m
Tomorrow will be 1m 17s shorter.
Waxing Gibbous, 95% of the Moon is Illuminated
Today
Waxing Gibbous
Jul 12
Full
Jul 18
Last Quarter
Jul 26
New
Aug 3
First Quarter

Today's Extremes

State Highs State Lows

Community

WunderPhotos

Upload Photos

1,732,194 photos uploaded!

WunderBlogs® & News

Nearby

Snow Depth

Station Depth Elevation
No new snow has been reported.

Earthquake Activity

City Distance Mag. Time & Date
No recent earthquake activity has been reported nearby.
Minimum magnitude displayed is 2.5.

Coastal Water Temperatures

Place Temperature
No Stations Reporting

Nearby Weather Stations

Station Location Temp. Heat Index Dew Point Humidity Wind Precip. Elev Updated Type
Osage, IA 77.0 °F 79 °F 64 °F 63% SE  at  0.0 mph 0.00 in / hr 1173 ft 12:02 PM CDT Normal
Steve's Weather Station, Grand Meadow, MN 79.5 °F 81 °F 64 °F 59% SE  at  4.4 mph 0.00 in / hr 1296 ft 12:00 PM CDT Normal
Stewartville, MN 76.2 °F 78 °F 66 °F 70% South  at  3.0 mph 0.00 in / hr 1253 ft 11:41 AM CDT Normal
St. Ansgar GreenHouse & Floral Shop, St. Ansgar, IA 66.9 °F - 56 °F 67% SSW  at  0.0 mph 0.00 in / hr 1152 ft 8:34 AM CDT Normal

Show More Stations Show Fewer Stations